createdAt,value
2023-02-15T00:02:03.701Z,96.90
2023-02-15T00:04:45.723Z,99.23
2023-02-15T00:07:16.884Z,101.13
2023-02-15T00:09:46.784Z,102.77
2023-02-15T00:12:15.141Z,98.43
2023-02-15T00:14:43.500Z,100.57
2023-02-15T00:17:11.697Z,105.03
2023-02-15T00:19:40.991Z,102.40
2023-02-15T00:22:09.559Z,100.60
2023-02-15T00:24:38.989Z,100.53
2023-02-15T00:27:08.102Z,99.87
2023-02-15T00:29:36.142Z,101.57
2023-02-15T00:32:04.319Z,101.20
2023-02-15T00:34:32.416Z,103.00
2023-02-15T00:37:00.481Z,103.27
2023-02-15T00:39:29.905Z,104.77
2023-02-15T00:41:59.740Z,103.80
2023-02-15T00:44:27.829Z,104.13
2023-02-15T00:46:55.921Z,105.27
2023-02-15T00:49:24.028Z,104.23
2023-02-15T00:51:52.095Z,108.77
2023-02-15T00:54:20.276Z,107.17
2023-02-15T00:56:48.321Z,106.03
2023-02-15T00:59:17.759Z,105.80
2023-02-15T01:01:45.772Z,107.27
2023-02-15T01:04:13.840Z,106.93
2023-02-15T01:06:41.941Z,107.00
2023-02-15T01:09:10.068Z,109.87
2023-02-15T01:11:38.064Z,110.70
2023-02-15T01:14:06.427Z,112.67
2023-02-15T01:16:35.882Z,109.20
2023-02-15T01:19:04.654Z,108.20
2023-02-15T01:21:35.361Z,105.40
2023-02-15T01:24:03.529Z,107.57
2023-02-15T01:26:31.566Z,107.30
2023-02-15T01:28:59.628Z,108.67
2023-02-15T01:31:27.902Z,112.10
2023-02-15T01:33:57.457Z,107.63
2023-02-15T01:36:25.454Z,106.70
2023-02-15T01:38:53.547Z,111.70
2023-02-15T01:41:28.631Z,108.77
2023-02-15T01:43:58.234Z,111.43
2023-02-15T01:46:30.900Z,109.50
2023-02-15T01:49:05.204Z,109.13
2023-02-15T01:51:38.260Z,111.13
2023-02-15T01:54:11.883Z,111.87
2023-02-15T01:56:41.673Z,110.20
2023-02-15T01:59:15.653Z,109.17
2023-02-15T02:01:43.789Z,111.37
2023-02-15T02:04:18.400Z,112.27
2023-02-15T02:06:48.726Z,113.47
2023-02-15T02:09:17.173Z,113.73
2023-02-15T02:11:48.622Z,111.10
2023-02-15T02:14:17.350Z,111.20
2023-02-15T02:16:54.331Z,111.80
2023-02-15T02:19:47.987Z,112.97
2023-02-15T02:22:48.851Z,111.57
2023-02-15T02:25:55.127Z,110.77
2023-02-15T02:28:49.465Z,114.17
2023-02-15T02:31:34.699Z,113.20
2023-02-15T02:34:07.849Z,109.00
2023-02-15T02:36:43.966Z,111.23
2023-02-15T02:39:23.949Z,112.63
2023-02-15T02:41:58.437Z,111.33
2023-02-15T02:44:31.163Z,114.23
2023-02-15T02:47:04.494Z,105.93
2023-02-15T02:49:35.993Z,105.40
2023-02-15T02:52:06.691Z,106.73
2023-02-15T02:54:36.461Z,106.77
2023-02-15T02:57:08.120Z,111.50
2023-02-15T02:59:41.113Z,111.60
2023-02-15T03:02:15.468Z,109.63
2023-02-15T03:04:49.647Z,108.73
2023-02-15T03:07:23.017Z,110.93
2023-02-15T03:09:53.801Z,102.87
2023-02-15T03:12:24.519Z,104.17
2023-02-15T03:14:54.665Z,105.00
2023-02-15T03:17:25.508Z,106.53
2023-02-15T03:19:59.433Z,106.07
2023-02-15T03:22:32.161Z,103.53
2023-02-15T03:25:04.218Z,104.93
2023-02-15T03:27:37.387Z,105.67
2023-02-15T03:30:08.368Z,103.00
2023-02-15T03:32:38.560Z,102.30
2023-02-15T03:35:08.801Z,102.53
2023-02-15T03:37:42.834Z,99.70
2023-02-15T03:40:37.229Z,101.70
2023-02-15T03:43:13.226Z,105.83
2023-02-15T03:45:55.592Z,104.03
2023-02-15T03:48:27.534Z,105.17
2023-02-15T03:51:18.177Z,103.17
2023-02-15T03:53:49.239Z,100.80
2023-02-15T03:56:17.317Z,104.00
2023-02-15T03:59:03.046Z,103.43
2023-02-15T04:01:54.577Z,107.10
2023-02-15T04:04:25.687Z,106.60
2023-02-15T04:06:55.139Z,107.17
2023-02-15T04:09:40.742Z,104.30
2023-02-15T04:12:08.992Z,105.07
2023-02-15T04:14:54.699Z,106.83
2023-02-15T04:17:22.731Z,101.40
2023-02-15T04:20:08.504Z,104.87
2023-02-15T04:22:55.545Z,103.73
2023-02-15T04:25:23.752Z,107.40
2023-02-15T04:27:53.557Z,102.57
2023-02-15T04:30:23.667Z,103.80
2023-02-15T04:32:53.089Z,101.13
2023-02-15T04:35:21.359Z,100.50
2023-02-15T04:37:50.952Z,98.90
2023-02-15T04:40:19.837Z,95.50
2023-02-15T04:42:50.524Z,99.87
2023-02-15T04:45:19.074Z,98.53
2023-02-15T04:47:47.233Z,101.30
2023-02-15T04:50:15.302Z,104.00
2023-02-15T04:52:43.309Z,101.00
2023-02-15T04:55:12.846Z,100.07
2023-02-15T04:57:40.906Z,101.93
2023-02-15T05:00:10.691Z,104.80
2023-02-15T05:02:38.863Z,104.50
2023-02-15T05:05:08.133Z,104.17
2023-02-15T05:07:36.143Z,103.27
2023-02-15T05:10:04.357Z,100.87
2023-02-15T05:12:33.964Z,101.27
2023-02-15T05:15:02.020Z,97.23
2023-02-15T05:17:30.099Z,95.77
2023-02-15T05:19:58.155Z,100.53
2023-02-15T05:22:26.266Z,98.83
2023-02-15T05:25:11.620Z,95.37
2023-02-15T05:27:58.462Z,96.73
2023-02-15T05:30:26.839Z,92.97
2023-02-15T05:32:55.133Z,91.47
2023-02-15T05:35:23.339Z,85.30
2023-02-15T05:37:51.442Z,87.27
2023-02-15T05:40:19.747Z,92.00
2023-02-15T05:42:49.150Z,88.03
2023-02-15T05:45:17.413Z,96.00
2023-02-15T05:47:45.661Z,91.67
2023-02-15T05:50:13.774Z,87.03
2023-02-15T05:52:42.112Z,88.53
2023-02-15T05:55:10.759Z,93.47
2023-02-15T05:57:38.780Z,92.00
2023-02-15T06:00:10.854Z,85.70
2023-02-15T06:02:39.557Z,89.73
2023-02-15T06:05:08.532Z,93.80
2023-02-15T06:07:36.872Z,91.07
2023-02-15T06:10:05.529Z,93.87
2023-02-15T06:12:33.589Z,97.17
2023-02-15T06:15:01.612Z,94.83
2023-02-15T06:17:31.102Z,99.80
2023-02-15T06:19:59.200Z,95.20
2023-02-15T06:22:27.375Z,97.73
2023-02-15T06:24:55.461Z,90.33
2023-02-15T06:27:23.531Z,91.07
2023-02-15T06:29:51.604Z,91.47
2023-02-15T06:32:19.678Z,86.70
2023-02-15T06:34:49.092Z,89.10
2023-02-15T06:37:17.146Z,107.17
2023-02-15T06:39:45.755Z,114.20
2023-02-15T06:42:13.861Z,113.03
2023-02-15T06:44:42.127Z,108.10
2023-02-15T06:47:10.144Z,107.03
2023-02-15T06:49:38.207Z,111.53
2023-02-15T06:52:07.942Z,110.13
2023-02-15T06:54:36.015Z,108.17
2023-02-15T06:57:04.276Z,103.87
2023-02-15T06:59:32.398Z,106.13
2023-02-15T07:02:00.433Z,100.77
2023-02-15T07:04:29.727Z,108.65
2023-02-15T07:06:58.002Z,104.50
2023-02-15T07:09:27.719Z,101.63
2023-02-15T07:12:13.280Z,107.70
2023-02-15T07:14:41.762Z,108.13
2023-02-15T07:17:27.426Z,109.90
2023-02-15T07:19:57.879Z,105.60
2023-02-15T07:22:25.962Z,108.17
2023-02-15T07:24:55.807Z,104.67
2023-02-15T07:27:23.944Z,106.03
2023-02-15T07:29:52.054Z,108.70
2023-02-15T07:32:20.585Z,108.50
2023-02-15T07:34:48.666Z,103.63
2023-02-15T07:37:16.732Z,106.63
2023-02-15T07:39:44.806Z,108.53
2023-02-15T07:42:14.603Z,106.03
2023-02-15T07:44:42.678Z,110.97
2023-02-15T07:47:10.728Z,113.03
2023-02-15T07:49:39.142Z,113.30
2023-02-15T07:52:07.224Z,119.00
2023-02-15T07:54:35.469Z,119.60
2023-02-15T07:57:03.958Z,121.50
2023-02-15T07:59:33.390Z,123.40
2023-02-15T08:02:01.508Z,120.17
2023-02-15T08:04:29.639Z,124.40
2023-02-15T08:06:57.677Z,121.97
2023-02-15T08:09:25.765Z,122.03
2023-02-15T08:11:53.911Z,119.90
2023-02-15T08:14:23.068Z,120.57
2023-02-15T08:16:54.001Z,121.93
2023-02-15T08:19:24.451Z,118.30
2023-02-15T08:21:54.531Z,118.60
2023-02-15T08:24:24.694Z,122.33
2023-02-15T08:26:54.797Z,119.20
2023-02-15T08:29:24.436Z,119.17
2023-02-15T08:31:55.920Z,119.73
2023-02-15T08:34:24.218Z,119.33
2023-02-15T08:36:52.358Z,119.73
2023-02-15T08:39:20.528Z,120.57
2023-02-15T08:41:49.842Z,120.30
2023-02-15T08:44:19.602Z,118.10
2023-02-15T08:46:49.075Z,110.90
2023-02-15T08:49:20.354Z,103.90
2023-02-15T08:51:49.457Z,102.37
2023-02-15T08:54:21.650Z,99.90
2023-02-15T08:56:50.538Z,93.23
2023-02-15T08:59:20.537Z,97.47
2023-02-15T09:01:50.049Z,103.17
2023-02-15T09:04:19.913Z,94.97
2023-02-15T09:06:49.744Z,91.33
2023-02-15T09:09:18.657Z,87.10
2023-02-15T09:11:49.089Z,78.57
2023-02-15T09:14:18.946Z,83.60
2023-02-15T09:16:50.794Z,79.57
2023-02-15T09:19:22.656Z,76.97
2023-02-15T09:21:51.235Z,75.27
2023-02-15T09:24:20.048Z,75.33
2023-02-15T09:26:49.535Z,74.90
2023-02-15T09:29:18.943Z,73.13
2023-02-15T09:31:49.727Z,70.80
2023-02-15T09:34:21.175Z,71.13
2023-02-15T09:36:49.925Z,65.30
2023-02-15T09:39:19.482Z,67.63
2023-02-15T09:42:18.414Z,70.27
2023-02-15T09:45:12.025Z,70.10
2023-02-15T09:47:58.945Z,62.33
2023-02-15T09:50:39.961Z,58.37
2023-02-15T09:53:29.617Z,53.63
2023-02-15T09:56:04.774Z,47.10
2023-02-15T09:58:41.896Z,48.90
2023-02-15T10:01:20.655Z,47.07
2023-02-15T10:04:04.565Z,44.67
2023-02-15T10:06:43.243Z,46.33
2023-02-15T10:09:36.121Z,44.33
2023-02-15T10:12:26.537Z,39.03
2023-02-15T10:15:32.928Z,37.40
2023-02-15T10:18:17.468Z,33.13
2023-02-15T10:20:55.101Z,33.17
2023-02-15T10:23:38.410Z,31.43
2023-02-15T10:26:15.051Z,31.10
2023-02-15T10:28:50.184Z,30.60
2023-02-15T10:31:29.663Z,28.73
2023-02-15T10:34:17.281Z,30.17
2023-02-15T10:37:09.751Z,25.67
2023-02-15T10:39:48.307Z,23.90
2023-02-15T10:42:24.334Z,25.33
2023-02-15T10:45:06.382Z,23.43
2023-02-15T10:47:47.269Z,22.50
2023-02-15T10:50:25.866Z,21.37
2023-02-15T10:53:25.464Z,22.50
2023-02-15T10:55:59.401Z,21.93
2023-02-15T10:58:40.703Z,21.77
2023-02-15T11:01:20.927Z,22.50
2023-02-15T11:04:10.353Z,19.57
2023-02-15T11:06:41.678Z,20.90
2023-02-15T11:09:16.513Z,20.60
2023-02-15T11:11:50.297Z,19.10
2023-02-15T11:14:25.713Z,21.13
2023-02-15T11:16:59.138Z,17.77
2023-02-15T11:19:33.860Z,19.97
2023-02-15T11:22:04.908Z,18.73
2023-02-15T11:24:38.318Z,19.57
2023-02-15T11:27:20.451Z,18.87
2023-02-15T11:29:56.910Z,19.00
2023-02-15T11:32:27.962Z,18.00
2023-02-15T11:35:00.300Z,19.60
2023-02-15T11:37:35.613Z,19.07
2023-02-15T11:40:08.590Z,17.97
2023-02-15T11:42:38.197Z,19.57
2023-02-15T11:45:20.006Z,19.90
2023-02-15T11:47:48.097Z,18.60
2023-02-15T11:50:19.300Z,19.23
2023-02-15T11:52:47.383Z,18.60
2023-02-15T11:55:19.836Z,19.40
2023-02-15T11:57:55.840Z,18.97
2023-02-15T12:00:36.821Z,19.20
2023-02-15T12:03:16.333Z,19.13
2023-02-15T12:05:48.991Z,18.60
2023-02-15T12:08:21.997Z,19.57
2023-02-15T12:11:04.752Z,18.30
2023-02-15T12:13:34.658Z,19.13
2023-02-15T12:16:13.760Z,18.33
2023-02-15T12:18:45.412Z,18.60
2023-02-15T12:21:14.790Z,19.80
2023-02-15T12:23:49.205Z,19.47
2023-02-15T12:26:25.026Z,19.63
2023-02-15T12:28:58.860Z,18.70
2023-02-15T12:31:31.109Z,20.33
2023-02-15T12:34:02.801Z,18.50
2023-02-15T12:36:34.218Z,19.13
2023-02-15T12:39:21.641Z,18.37
2023-02-15T12:42:01.565Z,19.23
2023-02-15T12:44:32.597Z,18.17
2023-02-15T12:47:03.945Z,20.43
2023-02-15T12:49:33.584Z,19.73
2023-02-15T12:52:03.544Z,18.47
2023-02-15T12:54:35.642Z,18.43
2023-02-15T12:57:26.746Z,18.37
2023-02-15T12:59:59.240Z,19.07
2023-02-15T13:02:36.692Z,19.30
2023-02-15T13:05:19.524Z,17.83
2023-02-15T13:07:51.764Z,18.10
2023-02-15T13:10:29.368Z,18.47
2023-02-15T13:12:58.970Z,18.53
2023-02-15T13:15:33.601Z,18.03
2023-02-15T13:18:02.971Z,18.27
2023-02-15T13:20:31.681Z,19.50
2023-02-15T13:23:05.342Z,19.23
2023-02-15T13:25:48.221Z,17.97
2023-02-15T13:28:19.041Z,17.50
2023-02-15T13:30:49.814Z,17.80
2023-02-15T13:33:27.261Z,18.37
2023-02-15T13:36:04.046Z,18.20
2023-02-15T13:38:48.306Z,18.33
2023-02-15T13:41:21.782Z,20.87
2023-02-15T13:43:59.976Z,17.70
2023-02-15T13:46:47.543Z,20.03
2023-02-15T13:49:23.751Z,19.37
2023-02-15T13:52:00.507Z,19.40
2023-02-15T13:54:45.896Z,19.80
2023-02-15T13:57:40.640Z,18.17
2023-02-15T14:00:21.607Z,18.93
2023-02-15T14:03:21.408Z,18.00
2023-02-15T14:06:12.112Z,18.93
2023-02-15T14:08:54.932Z,21.03
2023-02-15T14:11:32.606Z,17.07
2023-02-15T14:14:27.543Z,18.37
2023-02-15T14:17:07.711Z,18.50
2023-02-15T14:19:46.631Z,18.60
2023-02-15T14:22:25.049Z,17.80
2023-02-15T14:25:04.880Z,18.00
2023-02-15T14:27:45.513Z,18.77
2023-02-15T14:30:17.995Z,18.30
2023-02-15T14:32:50.461Z,19.57
2023-02-15T14:35:21.355Z,21.50
2023-02-15T14:37:59.727Z,20.60
2023-02-15T14:40:53.842Z,19.23
2023-02-15T14:43:31.644Z,18.93
2023-02-15T14:46:08.595Z,19.80
2023-02-15T14:48:43.544Z,18.53
2023-02-15T14:51:51.796Z,20.00
2023-02-15T14:55:07.755Z,19.27
2023-02-15T14:57:37.480Z,18.83
2023-02-15T15:00:35.629Z,19.77
2023-02-15T15:03:04.058Z,21.40
2023-02-15T15:05:36.429Z,19.17
2023-02-15T15:08:07.328Z,19.83
2023-02-15T15:10:42.458Z,19.30
2023-02-15T15:13:54.768Z,18.43
2023-02-15T15:16:50.498Z,18.10
2023-02-15T15:20:13.960Z,18.83
2023-02-15T15:22:43.320Z,18.73
2023-02-15T15:25:35.427Z,19.03
2023-02-15T15:28:04.510Z,18.90
2023-02-15T15:30:52.325Z,19.73
2023-02-15T15:33:56.861Z,19.20
2023-02-15T15:36:58.390Z,20.57
2023-02-15T15:39:52.600Z,19.77
2023-02-15T15:42:34.601Z,20.47
2023-02-15T15:45:33.878Z,18.63
2023-02-15T15:48:27.621Z,20.93
2023-02-15T15:50:58.812Z,19.00
2023-02-15T15:53:29.486Z,18.63
2023-02-15T15:56:03.378Z,19.67
2023-02-15T15:58:33.128Z,18.90
2023-02-15T16:01:06.566Z,20.93
2023-02-15T16:03:34.704Z,20.17
2023-02-15T16:06:03.006Z,20.70
2023-02-15T16:08:33.332Z,18.90
2023-02-15T16:11:17.767Z,20.60
2023-02-15T16:13:47.607Z,19.43
2023-02-15T16:16:23.205Z,18.40
2023-02-15T16:18:52.133Z,18.33
2023-02-15T16:21:24.134Z,19.37
2023-02-15T16:24:15.678Z,19.67
2023-02-15T16:27:15.372Z,21.07
2023-02-15T16:29:44.848Z,18.53
2023-02-15T16:32:20.452Z,19.03
2023-02-15T16:34:56.411Z,21.70
2023-02-15T16:37:28.142Z,20.50
2023-02-15T16:39:57.287Z,18.70
2023-02-15T16:42:25.702Z,17.97
2023-02-15T16:45:01.342Z,18.67
2023-02-15T16:47:32.704Z,18.33
2023-02-15T16:50:04.265Z,18.53
2023-02-15T16:52:32.881Z,17.83
2023-02-15T16:55:03.942Z,20.97
2023-02-15T16:57:35.989Z,20.70
2023-02-15T17:00:08.296Z,19.43
2023-02-15T17:02:55.102Z,20.10
2023-02-15T17:05:25.029Z,19.13
2023-02-15T17:08:07.748Z,20.33
2023-02-15T17:10:38.400Z,18.17
2023-02-15T17:13:11.768Z,20.67
2023-02-15T17:15:42.732Z,21.20
2023-02-15T17:18:17.489Z,19.00
2023-02-15T17:20:46.802Z,21.10
2023-02-15T17:23:28.155Z,20.67
2023-02-15T17:25:56.949Z,19.53
2023-02-15T17:28:28.232Z,19.70
2023-02-15T17:30:59.412Z,20.57
2023-02-15T17:33:37.638Z,21.57
2023-02-15T17:36:10.705Z,19.70
2023-02-15T17:38:39.749Z,18.73
2023-02-15T17:41:08.102Z,21.97
2023-02-15T17:43:36.165Z,22.57
2023-02-15T17:46:05.919Z,21.57
2023-02-15T17:48:37.374Z,19.33
2023-02-15T17:51:09.032Z,22.53
2023-02-15T17:53:37.994Z,19.80
2023-02-15T17:56:10.647Z,20.27
2023-02-15T17:58:39.358Z,28.47
2023-02-15T18:01:33.938Z,21.10
2023-02-15T18:04:19.521Z,20.33
2023-02-15T18:07:05.082Z,22.47
2023-02-15T18:09:50.779Z,19.10
2023-02-15T18:12:22.538Z,19.73
2023-02-15T18:14:51.350Z,20.50
2023-02-15T18:17:23.422Z,20.37
2023-02-15T18:19:51.591Z,22.90
2023-02-15T18:22:20.446Z,19.17
2023-02-15T18:24:49.478Z,21.20
2023-02-15T18:27:18.105Z,20.73
2023-02-15T18:29:46.211Z,19.37
2023-02-15T18:32:19.058Z,20.43
2023-02-15T18:34:49.585Z,22.93
2023-02-15T18:37:20.714Z,23.90
2023-02-15T18:39:50.587Z,23.27
2023-02-15T18:42:22.414Z,22.37
2023-02-15T18:44:50.940Z,22.20
2023-02-15T18:47:18.976Z,25.87
2023-02-15T18:49:48.455Z,26.83
2023-02-15T18:52:18.288Z,23.10
2023-02-15T18:54:46.967Z,23.03
2023-02-15T18:57:16.440Z,21.27
2023-02-15T18:59:44.552Z,20.37
2023-02-15T19:02:14.590Z,22.20
2023-02-15T19:04:42.764Z,20.40
2023-02-15T19:07:18.801Z,23.13
2023-02-15T19:09:49.275Z,20.80
2023-02-15T19:12:19.498Z,20.80
2023-02-15T19:14:47.891Z,23.43
2023-02-15T19:17:18.288Z,23.13
2023-02-15T19:19:47.073Z,23.73
2023-02-15T19:22:19.153Z,24.80
2023-02-15T19:24:49.157Z,21.60
2023-02-15T19:27:22.365Z,22.03
2023-02-15T19:29:51.027Z,23.10
2023-02-15T19:32:19.242Z,22.80
2023-02-15T19:34:47.358Z,22.20
2023-02-15T19:37:24.517Z,22.20
2023-02-15T19:39:52.786Z,23.67
2023-02-15T19:42:25.018Z,21.27
2023-02-15T19:44:54.524Z,22.77
2023-02-15T19:47:22.984Z,22.13
2023-02-15T19:49:51.084Z,20.73
2023-02-15T19:52:24.106Z,22.43
2023-02-15T19:54:54.002Z,25.70
2023-02-15T19:57:22.438Z,24.73
2023-02-15T19:59:50.682Z,25.70
2023-02-15T20:02:20.262Z,25.03
2023-02-15T20:04:48.437Z,24.20
2023-02-15T20:07:23.762Z,23.83
2023-02-15T20:09:52.057Z,23.27
2023-02-15T20:12:22.692Z,23.90
2023-02-15T20:14:51.107Z,23.40
2023-02-15T20:17:19.943Z,24.23
2023-02-15T20:19:48.161Z,25.00
2023-02-15T20:22:25.220Z,26.37
2023-02-15T20:24:55.569Z,24.90
2023-02-15T20:27:24.736Z,24.47
2023-02-15T20:29:56.681Z,25.23
2023-02-15T20:32:25.326Z,25.57
2023-02-15T20:34:53.438Z,25.00
2023-02-15T20:37:26.450Z,25.40
2023-02-15T20:39:54.588Z,26.83
2023-02-15T20:42:22.785Z,26.77
2023-02-15T20:44:50.872Z,24.77
2023-02-15T20:47:18.972Z,26.83
2023-02-15T20:49:47.042Z,27.17
2023-02-15T20:52:20.110Z,26.23
2023-02-15T20:54:49.569Z,26.37
2023-02-15T20:57:17.712Z,26.53
2023-02-15T20:59:45.926Z,26.50
2023-02-15T21:02:18.972Z,25.67
2023-02-15T21:04:47.586Z,26.50
2023-02-15T21:07:17.084Z,27.63
2023-02-15T21:09:45.186Z,26.60
2023-02-15T21:12:16.706Z,26.27
2023-02-15T21:14:45.098Z,27.50
2023-02-15T21:17:13.661Z,26.33
2023-02-15T21:19:42.106Z,26.10
2023-02-15T21:22:12.957Z,26.70
2023-02-15T21:24:45.545Z,27.97
2023-02-15T21:27:16.097Z,28.07
2023-02-15T21:29:44.119Z,32.53
2023-02-15T21:32:12.536Z,29.00
2023-02-15T21:34:40.978Z,30.53
2023-02-15T21:37:27.320Z,30.30
2023-02-15T21:39:55.403Z,29.70
2023-02-15T21:42:50.815Z,32.03
2023-02-15T21:45:37.132Z,31.03
2023-02-15T21:48:05.516Z,30.37
2023-02-15T21:51:04.661Z,33.70
2023-02-15T21:53:35.142Z,32.20
2023-02-15T21:56:05.978Z,32.53
2023-02-15T21:58:37.845Z,33.13
2023-02-15T22:01:07.448Z,32.57
2023-02-15T22:03:37.456Z,31.30
2023-02-15T22:06:06.534Z,32.90
2023-02-15T22:08:35.072Z,32.27
2023-02-15T22:11:03.420Z,35.07
2023-02-15T22:13:33.921Z,33.10
2023-02-15T22:16:04.074Z,33.20
2023-02-15T22:18:34.253Z,35.60
2023-02-15T22:21:04.283Z,35.40
2023-02-15T22:23:32.764Z,33.47
2023-02-15T22:26:06.148Z,35.83
2023-02-15T22:28:36.911Z,35.63
2023-02-15T22:31:11.578Z,36.90
2023-02-15T22:33:39.710Z,36.00
2023-02-15T22:36:20.849Z,36.47
2023-02-15T22:38:48.898Z,34.97
2023-02-15T22:41:18.086Z,35.40
2023-02-15T22:43:48.172Z,39.53
2023-02-15T22:46:20.147Z,36.70
2023-02-15T22:48:48.871Z,36.27
2023-02-15T22:51:17.953Z,37.57
2023-02-15T22:53:46.180Z,36.40
2023-02-15T22:56:20.790Z,37.03
2023-02-15T22:58:50.441Z,37.30
2023-02-15T23:01:25.624Z,37.33
2023-02-15T23:03:53.724Z,37.37
2023-02-15T23:06:22.815Z,40.13
2023-02-15T23:08:50.844Z,37.70
2023-02-15T23:11:20.068Z,40.83
2023-02-15T23:13:50.404Z,40.00
2023-02-15T23:16:19.169Z,41.87
2023-02-15T23:18:49.261Z,42.47
2023-02-15T23:21:21.184Z,41.87
2023-02-15T23:23:51.172Z,43.03
2023-02-15T23:26:21.715Z,43.33
2023-02-15T23:28:50.952Z,45.00
2023-02-15T23:31:21.772Z,44.50
2023-02-15T23:33:52.499Z,46.70
2023-02-15T23:36:27.147Z,47.70
2023-02-15T23:38:56.805Z,47.23
2023-02-15T23:41:26.854Z,48.73
2023-02-15T23:43:57.389Z,47.60
2023-02-15T23:46:28.988Z,49.03
2023-02-15T23:48:58.475Z,50.27
2023-02-15T23:51:31.805Z,49.73
2023-02-15T23:54:00.280Z,50.97
2023-02-15T23:56:28.370Z,51.50
2023-02-15T23:58:56.501Z,54.07
